Time;durP1;ratioP1;P1;durP2;ratioP2;P2;SDS_P1;SDS_P2;PMS_P1;PMS_P2;Temp;Humidity;BMP_temperature;BMP_pressure;BME280_temperature;BME280_humidity;BME280_pressure;Samples;Min_cycle;Max_cycle;Signal;HPM_P1;HPM_P2
2023/11/25 00:01:28;;;;;;;1.20;0.55;;;10.70;53.80;;;;;;7552386;23;20030;-70
2023/11/25 00:04:29;;;;;;;2.25;0.95;;;10.60;54.00;;;;;;7529285;23;20521;-69
2023/11/25 00:07:32;;;;;;;0.77;0.45;;;10.60;54.00;;;;;;7528277;23;20050;-71
2023/11/25 00:10:34;;;;;;;1.60;0.63;;;10.60;54.10;;;;;;7554691;23;20022;-71
2023/11/25 00:13:37;;;;;;;1.90;0.88;;;10.60;54.30;;;;;;7554797;23;20030;-71
2023/11/25 00:16:38;;;;;;;4.30;0.65;;;10.60;54.60;;;;;;7554196;23;20041;-70
2023/11/25 00:19:38;;;;;;;2.15;0.40;;;10.50;54.70;;;;;;7528786;23;20042;-70
2023/11/25 00:22:41;;;;;;;0.70;0.60;;;10.50;54.80;;;;;;7554339;23;20003;-69
2023/11/25 00:25:42;;;;;;;5.22;0.85;;;10.40;54.80;;;;;;7528532;23;20102;-70
2023/11/25 00:28:43;;;;;;;3.13;0.77;;;10.40;54.80;;;;;;7529008;23;20349;-69
2023/11/25 00:31:54;;;;;;;2.80;0.50;;;10.40;54.80;;;;;;7555417;23;20127;-70
2023/11/25 00:34:55;;;;;;;2.03;0.80;;;10.30;54.70;;;;;;7529096;23;20049;-71
2023/11/25 00:37:56;;;;;;;0.75;0.63;;;10.30;54.70;;;;;;7529627;23;20428;-71
2023/11/25 00:40:58;;;;;;;4.07;0.75;;;10.30;54.70;;;;;;7554776;23;20007;-71
2023/11/25 00:44:00;;;;;;;2.30;0.68;;;10.20;54.50;;;;;;7554220;23;20010;-70
2023/11/25 00:47:02;;;;;;;2.83;0.60;;;10.20;54.40;;;;;;7528046;23;20487;-70
2023/11/25 00:50:05;;;;;;;1.15;0.80;;;10.20;54.40;;;;;;7552133;23;20021;-70
2023/11/25 00:53:06;;;;;;;0.82;0.40;;;10.20;54.20;;;;;;7553900;23;20085;-72
2023/11/25 00:56:07;;;;;;;2.20;0.90;;;10.10;54.00;;;;;;7527656;23;20078;-71
2023/11/25 00:59:08;;;;;;;0.82;0.52;;;10.20;54.00;;;;;;7554345;23;20517;-70
2023/11/25 01:02:09;;;;;;;0.88;0.60;;;10.20;54.00;;;;;;7528063;23;20030;-69
2023/11/25 01:05:10;;;;;;;1.00;0.60;;;10.20;53.90;;;;;;7528005;23;20477;-70
2023/11/25 01:08:11;;;;;;;8.32;0.80;;;10.10;54.40;;;;;;7553795;23;20014;-69
2023/11/25 01:11:12;;;;;;;0.82;0.55;;;10.10;53.80;;;;;;7553576;23;20345;-70
2023/11/25 01:14:13;;;;;;;1.75;0.30;;;10.00;53.80;;;;;;7528006;23;20014;-71
2023/11/25 01:17:14;;;;;;;1.27;0.45;;;10.00;53.80;;;;;;7554114;23;20010;-70
2023/11/25 01:20:15;;;;;;;0.88;0.32;;;9.90;54.00;;;;;;7527917;23;20354;-71
2023/11/25 01:23:16;;;;;;;4.82;1.00;;;9.90;54.00;;;;;;7527464;23;20386;-69
2023/11/25 01:26:17;;;;;;;1.38;0.60;;;9.90;54.00;;;;;;7553850;23;20275;-70
2023/11/25 01:29:18;;;;;;;2.83;0.60;;;9.90;53.60;;;;;;7527827;23;20286;-69
2023/11/25 01:32:19;;;;;;;0.90;0.45;;;9.90;53.40;;;;;;7527867;23;20488;-70
2023/11/25 01:35:20;;;;;;;0.85;0.55;;;9.90;53.20;;;;;;7503953;23;20126;-70
2023/11/25 01:38:23;;;;;;;1.55;0.47;;;9.90;53.40;;;;;;7528495;23;20106;-71
2023/11/25 01:41:23;;;;;;;2.33;0.63;;;9.80;53.30;;;;;;7527752;23;20322;-71
2023/11/25 01:44:24;;;;;;;0.52;0.38;;;9.80;53.30;;;;;;7551955;23;20007;-70
2023/11/25 01:47:25;;;;;;;3.28;0.90;;;9.80;53.40;;;;;;7528126;23;20037;-70
2023/11/25 01:50:28;;;;;;;2.08;0.68;;;9.80;53.40;;;;;;7551256;23;20487;-72
2023/11/25 01:53:29;;;;;;;0.38;0.35;;;9.70;53.40;;;;;;7528101;23;20428;-69
2023/11/25 01:56:33;;;;;;;0.73;0.30;;;9.70;53.50;;;;;;7527468;23;20578;-68
2023/11/25 01:59:34;;;;;;;1.13;0.57;;;9.60;53.30;;;;;;7528110;23;20130;-70
2023/11/25 02:02:35;;;;;;;0.73;0.63;;;9.60;53.30;;;;;;7505426;23;20147;-71
2023/11/25 02:05:38;;;;;;;2.60;0.80;;;9.60;53.20;;;;;;7504959;23;20121;-72
2023/11/25 02:08:39;;;;;;;1.85;0.77;;;9.60;53.00;;;;;;7527840;23;20062;-70
2023/11/25 02:11:56;;;;;;;1.85;0.50;;;9.60;52.70;;;;;;7527636;23;20380;-70
2023/11/25 02:14:57;;;;;;;0.63;0.50;;;9.60;52.50;;;;;;7555593;23;20014;-70
2023/11/25 02:17:58;;;;;;;2.10;0.55;;;9.60;52.60;;;;;;7531039;23;20396;-69
2023/11/25 02:20:59;;;;;;;0.30;0.30;;;9.50;52.60;;;;;;7555778;23;20108;-70
2023/11/25 02:23:59;;;;;;;0.50;0.50;;;9.50;52.30;;;;;;7529222;23;20006;-69
2023/11/25 02:27:05;;;;;;;0.32;0.28;;;9.50;53.00;;;;;;7528478;23;20033;-70
2023/11/25 02:30:06;;;;;;;0.50;0.40;;;9.40;52.60;;;;;;7529156;23;20496;-70
2023/11/25 02:33:07;;;;;;;1.02;0.68;;;9.40;52.70;;;;;;7555347;23;20079;-69
2023/11/25 02:36:08;;;;;;;1.60;0.60;;;9.40;52.80;;;;;;7529887;23;20464;-70
2023/11/25 02:39:09;;;;;;;0.80;0.43;;;9.40;53.00;;;;;;7530124;23;20015;-70
2023/11/25 02:42:12;;;;;;;0.80;0.70;;;9.30;52.70;;;;;;7529582;23;20041;-70
2023/11/25 02:45:19;;;;;;;2.63;0.93;;;9.30;52.40;;;;;;7530218;23;20070;-69
2023/11/25 02:48:20;;;;;;;8.95;1.10;;;9.30;52.40;;;;;;7555372;23;20557;-70
2023/11/25 02:51:21;;;;;;;0.85;0.55;;;9.30;52.80;;;;;;7555323;23;20014;-70
2023/11/25 02:54:23;;;;;;;1.58;0.45;;;9.30;53.00;;;;;;7529007;23;20015;-69
2023/11/25 02:57:24;;;;;;;1.13;0.80;;;9.20;53.00;;;;;;7553301;23;20117;-71
2023/11/25 03:00:28;;;;;;;2.38;0.68;;;9.20;53.20;;;;;;7555090;23;20006;-70
2023/11/25 03:03:29;;;;;;;0.50;0.50;;;9.20;53.40;;;;;;7555271;23;20010;-71
2023/11/25 03:06:31;;;;;;;11.55;1.10;;;9.10;53.70;;;;;;7530084;23;20002;-70
2023/11/25 03:09:33;;;;;;;0.77;0.77;;;9.10;53.80;;;;;;7505480;23;20159;-71
2023/11/25 03:12:34;;;;;;;2.65;0.65;;;9.10;53.90;;;;;;7505267;23;20007;-70
2023/11/25 03:15:35;;;;;;;3.28;0.80;;;9.00;54.40;;;;;;7554274;23;20066;-70
2023/11/25 03:18:37;;;;;;;3.72;1.23;;;9.10;53.80;;;;;;7505004;23;20054;-69
2023/11/25 03:21:38;;;;;;;7.35;0.80;;;9.00;53.60;;;;;;7529553;23;20519;-71
2023/11/25 03:24:39;;;;;;;1.55;0.68;;;9.00;53.70;;;;;;7529350;23;20003;-70
2023/11/25 03:27:40;;;;;;;1.00;0.60;;;9.00;53.60;;;;;;7555218;23;20014;-70
2023/11/25 03:30:41;;;;;;;0.73;0.68;;;8.90;53.50;;;;;;7528714;23;20631;-70
2023/11/25 03:33:43;;;;;;;1.20;0.50;;;9.00;53.60;;;;;;7553361;23;20014;-70
2023/11/25 03:36:44;;;;;;;0.40;0.40;;;8.90;53.40;;;;;;7554930;23;20037;-69
2023/11/25 03:39:45;;;;;;;2.00;0.68;;;8.90;53.20;;;;;;7555993;23;20002;-70
2023/11/25 03:42:46;;;;;;;0.47;0.35;;;8.90;53.20;;;;;;7529846;23;20070;-70
2023/11/25 03:45:48;;;;;;;6.38;0.80;;;8.90;52.90;;;;;;7528508;23;20097;-71
2023/11/25 03:48:50;;;;;;;0.55;0.47;;;8.90;52.90;;;;;;7528905;23;20492;-69
2023/11/25 03:51:50;;;;;;;0.55;0.40;;;9.00;52.60;;;;;;7552116;23;20014;-69
2023/11/25 03:54:53;;;;;;;0.52;0.52;;;9.00;52.10;;;;;;7528247;23;20519;-70
2023/11/25 03:57:54;;;;;;;2.30;1.08;;;9.00;51.80;;;;;;7552100;23;20037;-70
2023/11/25 04:00:55;;;;;;;3.40;0.68;;;9.10;51.70;;;;;;7554509;23;20006;-70
2023/11/25 04:03:56;;;;;;;1.65;0.50;;;9.10;51.70;;;;;;7528508;23;20046;-70
2023/11/25 04:06:57;;;;;;;0.65;0.65;;;9.20;51.50;;;;;;7554022;23;20066;-69
2023/11/25 04:09:58;;;;;;;1.58;0.30;;;9.10;51.30;;;;;;7552624;23;20100;-70
2023/11/25 04:12:59;;;;;;;0.50;0.40;;;9.10;51.40;;;;;;7527856;23;20091;-70
2023/11/25 04:16:01;;;;;;;0.10;0.10;;;9.10;51.60;;;;;;7554378;23;20010;-71
2023/11/25 04:19:02;;;;;;;0.25;0.25;;;9.10;51.70;;;;;;7528521;23;20018;-69
2023/11/25 04:22:03;;;;;;;0.20;0.15;;;9.00;51.80;;;;;;7527832;23;20082;-70
2023/11/25 04:25:05;;;;;;;1.67;0.45;;;9.00;52.00;;;;;;7504132;23;20013;-71
2023/11/25 04:28:08;;;;;;;1.15;0.80;;;8.90;52.20;;;;;;7551634;23;20018;-70
2023/11/25 04:31:09;;;;;;;0.55;0.43;;;8.90;52.80;;;;;;7553654;23;20036;-70
2023/11/25 04:34:10;;;;;;;8.13;0.85;;;8.90;53.20;;;;;;7553833;23;20014;-70
2023/11/25 04:37:11;;;;;;;1.35;0.60;;;8.80;53.70;;;;;;7504608;23;20041;-70
2023/11/25 04:40:12;;;;;;;2.35;0.85;;;8.70;54.40;;;;;;7554260;23;20428;-69
2023/11/25 04:43:13;;;;;;;0.20;0.20;;;8.60;54.70;;;;;;7554751;23;20022;-71
2023/11/25 04:46:15;;;;;;;1.65;0.70;;;8.50;55.70;;;;;;7528215;23;20078;-70
2023/11/25 04:49:16;;;;;;;4.82;0.65;;;8.30;56.20;;;;;;7528400;23;20109;-69
2023/11/25 04:52:18;;;;;;;1.05;0.65;;;8.20;56.80;;;;;;7553851;23;20231;-70
2023/11/25 04:55:21;;;;;;;0.30;0.30;;;8.20;57.30;;;;;;7504042;23;20006;-70
2023/11/25 04:58:22;;;;;;;1.50;0.77;;;8.00;57.70;;;;;;7553941;23;20018;-70
2023/11/25 05:01:23;;;;;;;14.38;1.40;;;7.90;58.10;;;;;;7553555;23;20002;-70
2023/11/25 05:04:24;;;;;;;0.20;0.20;;;7.90;58.00;;;;;;7553641;23;20006;-69
2023/11/25 05:07:24;;;;;;;0.17;0.17;;;7.90;58.00;;;;;;7554249;23;20464;-70
2023/11/25 05:10:28;;;;;;;2.05;0.38;;;7.90;58.10;;;;;;7528177;23;20018;-71
2023/11/25 05:13:29;;;;;;;7.28;0.45;;;8.00;58.30;;;;;;7527988;23;20333;-69
2023/11/25 05:16:30;;;;;;;1.48;0.55;;;8.00;58.40;;;;;;7527745;23;20492;-70
2023/11/25 05:19:31;;;;;;;5.03;0.88;;;8.00;58.60;;;;;;7554277;23;20090;-68
2023/11/25 05:22:32;;;;;;;0.70;0.63;;;8.10;58.70;;;;;;7554375;23;20017;-69
2023/11/25 05:25:33;;;;;;;2.15;0.95;;;8.10;58.80;;;;;;7554001;23;20010;-69
2023/11/25 05:28:34;;;;;;;7.68;0.70;;;8.00;59.10;;;;;;7553496;23;20108;-69
2023/11/25 05:31:35;;;;;;;2.85;0.60;;;7.90;59.20;;;;;;7553740;23;20012;-69
2023/11/25 05:34:36;;;;;;;0.32;0.32;;;7.90;59.50;;;;;;7552827;23;20014;-70
2023/11/25 05:37:37;;;;;;;0.65;0.65;;;7.80;59.70;;;;;;7553690;23;20018;-68
2023/11/25 05:40:39;;;;;;;0.77;0.43;;;7.80;60.10;;;;;;7553634;23;20463;-69
2023/11/25 05:43:40;;;;;;;3.05;0.50;;;7.70;60.10;;;;;;7553666;23;20014;-70
2023/11/25 05:46:42;;;;;;;0.20;0.20;;;7.70;60.10;;;;;;7553414;23;20114;-68
2023/11/25 05:49:43;;;;;;;2.67;0.28;;;7.70;60.10;;;;;;7528151;23;20066;-70
2023/11/25 05:52:44;;;;;;;2.03;0.47;;;7.80;60.30;;;;;;7529730;23;20572;-69
2023/11/25 05:55:44;;;;;;;1.33;0.52;;;7.80;60.00;;;;;;7555421;23;20078;-69
2023/11/25 05:58:45;;;;;;;11.60;0.55;;;7.90;59.90;;;;;;7506150;23;20085;-69
2023/11/25 06:01:46;;;;;;;11.95;1.10;;;8.00;59.60;;;;;;7530112;23;20510;-69
2023/11/25 06:04:47;;;;;;;4.25;0.40;;;8.10;59.20;;;;;;7530870;23;20013;-70
2023/11/25 06:07:48;;;;;;;1.60;0.45;;;8.20;59.00;;;;;;7556210;23;20009;-70
2023/11/25 06:10:50;;;;;;;1.08;0.63;;;8.20;59.30;;;;;;7530145;23;20033;-68
2023/11/25 06:13:53;;;;;;;0.98;0.60;;;8.30;58.60;;;;;;7555753;23;20126;-70
2023/11/25 06:16:56;;;;;;;1.25;0.45;;;8.30;58.60;;;;;;7555704;23;20069;-69
2023/11/25 06:19:59;;;;;;;0.75;0.60;;;8.30;58.60;;;;;;7556348;23;20014;-69
2023/11/25 06:23:00;;;;;;;1.27;0.75;;;8.30;58.50;;;;;;7555439;23;20065;-69
2023/11/25 06:26:01;;;;;;;1.88;0.68;;;8.30;58.40;;;;;;7555558;23;20025;-68
2023/11/25 06:29:03;;;;;;;3.30;1.95;;;8.30;58.50;;;;;;7529662;23;20015;-70
2023/11/25 06:32:04;;;;;;;1.40;0.70;;;8.30;58.30;;;;;;7555817;23;20006;-70
2023/11/25 06:35:06;;;;;;;3.97;1.10;;;8.30;58.20;;;;;;7555224;23;20022;-71
2023/11/25 06:38:07;;;;;;;0.25;0.22;;;8.40;58.20;;;;;;7529975;23;20010;-69
2023/11/25 06:41:09;;;;;;;2.05;0.77;;;8.40;58.70;;;;;;7529418;23;20006;-68
2023/11/25 06:44:10;;;;;;;0.52;0.52;;;8.40;58.10;;;;;;7529319;23;20100;-71
2023/11/25 06:47:11;;;;;;;2.85;1.13;;;8.40;58.30;;;;;;7529813;23;20038;-69
2023/11/25 06:50:13;;;;;;;3.17;0.93;;;8.30;58.30;;;;;;7555409;23;20006;-69
2023/11/25 06:53:14;;;;;;;6.70;0.90;;;8.30;58.30;;;;;;7555794;23;20006;-70
2023/11/25 06:56:17;;;;;;;0.88;0.40;;;8.30;58.50;;;;;;7529897;23;20013;-70
2023/11/25 06:59:18;;;;;;;5.57;1.25;;;8.30;58.50;;;;;;7530081;23;20022;-70
2023/11/25 07:02:19;;;;;;;0.30;0.30;;;8.20;58.70;;;;;;7553809;23;20010;-70
2023/11/25 07:05:20;;;;;;;0.65;0.57;;;8.20;58.90;;;;;;7556022;23;20440;-70
2023/11/25 07:08:20;;;;;;;0.60;0.60;;;8.20;58.80;;;;;;7555889;23;20003;-71
2023/11/25 07:11:23;;;;;;;1.02;0.57;;;8.20;58.90;;;;;;7552293;23;20691;-70
2023/11/25 07:14:24;;;;;;;2.05;0.50;;;8.20;59.00;;;;;;7556187;23;20011;-72
2023/11/25 07:17:24;;;;;;;1.25;0.82;;;8.20;59.10;;;;;;7527862;23;20025;-69
2023/11/25 07:20:25;;;;;;;4.20;1.30;;;8.10;58.90;;;;;;7555499;23;20002;-71
2023/11/25 07:23:28;;;;;;;0.40;0.40;;;8.10;58.80;;;;;;7554759;23;20010;-69
2023/11/25 07:26:29;;;;;;;4.18;0.88;;;8.10;58.70;;;;;;7555429;23;20007;-70
2023/11/25 07:29:31;;;;;;;1.48;0.60;;;8.10;58.80;;;;;;7555356;23;20058;-70
2023/11/25 07:32:32;;;;;;;1.98;1.00;;;8.10;58.90;;;;;;7528468;23;20014;-69
2023/11/25 07:35:32;;;;;;;1.02;0.77;;;8.10;59.00;;;;;;7554947;23;20013;-71
2023/11/25 07:38:33;;;;;;;2.42;0.73;;;8.10;58.90;;;;;;7529426;23;20010;-70
2023/11/25 07:41:35;;;;;;;1.70;0.63;;;8.10;59.00;;;;;;7555518;23;20059;-70
2023/11/25 07:44:36;;;;;;;11.13;0.93;;;8.00;59.00;;;;;;7529107;23;20021;-71
2023/11/25 07:47:37;;;;;;;3.17;1.02;;;7.90;59.30;;;;;;7554120;23;20014;-70
2023/11/25 07:50:40;;;;;;;6.43;1.20;;;7.80;59.50;;;;;;7554147;23;20006;-70
2023/11/25 07:53:41;;;;;;;0.80;0.52;;;7.70;59.70;;;;;;7505128;23;20365;-70
2023/11/25 07:56:41;;;;;;;6.05;2.30;;;7.60;59.70;;;;;;7554214;23;20042;-70
2023/11/25 07:59:42;;;;;;;1.67;0.75;;;7.60;59.80;;;;;;7528053;23;20090;-71
2023/11/25 08:02:44;;;;;;;2.58;0.70;;;7.60;59.40;;;;;;7528682;23;20007;-71
2023/11/25 08:05:45;;;;;;;0.47;0.47;;;7.80;59.20;;;;;;7553142;23;20327;-71
2023/11/25 08:08:46;;;;;;;0.85;0.50;;;7.90;59.00;;;;;;7554637;23;20022;-71
2023/11/25 08:11:48;;;;;;;1.45;1.00;;;8.00;59.40;;;;;;7554310;23;20057;-70
2023/11/25 08:14:48;;;;;;;3.35;0.80;;;8.10;58.70;;;;;;7555969;23;20006;-70
2023/11/25 08:17:49;;;;;;;0.70;0.70;;;8.20;58.50;;;;;;7527607;23;20608;-70
2023/11/25 08:20:50;;;;;;;5.53;0.93;;;8.20;58.10;;;;;;7528466;23;20078;-69
2023/11/25 08:23:51;;;;;;;0.68;0.65;;;8.30;58.10;;;;;;7553886;23;20539;-71
2023/11/25 08:26:52;;;;;;;2.75;0.55;;;8.30;58.00;;;;;;7554949;23;20009;-70
2023/11/25 08:29:53;;;;;;;0.88;0.60;;;8.30;58.10;;;;;;7528799;23;20032;-71
2023/11/25 08:32:54;;;;;;;5.63;0.90;;;8.30;58.00;;;;;;7528651;23;20026;-70
2023/11/25 08:35:55;;;;;;;0.98;0.65;;;8.30;57.90;;;;;;7528791;23;20329;-70
2023/11/25 08:38:58;;;;;;;3.03;1.17;;;8.20;58.10;;;;;;7528600;23;20018;-70
2023/11/25 08:41:59;;;;;;;1.05;0.55;;;8.20;58.60;;;;;;7554953;23;20045;-71
2023/11/25 08:45:01;;;;;;;2.95;0.95;;;8.20;58.70;;;;;;7528719;23;20077;-70
2023/11/25 08:48:02;;;;;;;3.75;1.25;;;8.20;58.80;;;;;;7505578;23;20065;-71
2023/11/25 08:51:05;;;;;;;2.88;1.15;;;8.20;58.90;;;;;;7554783;23;20014;-69
2023/11/25 08:54:06;;;;;;;1.67;0.60;;;8.30;58.80;;;;;;7551957;23;20011;-70
2023/11/25 08:57:08;;;;;;;6.60;0.95;;;8.30;58.80;;;;;;7553617;23;20025;-70
2023/11/25 09:00:22;;;;;;;1.27;0.68;;;8.30;58.80;;;;;;7554333;23;20030;-69
2023/11/25 09:03:25;;;;;;;1.10;1.00;;;8.30;58.80;;;;;;7528102;23;20054;-72
2023/11/25 09:06:30;;;;;;;1.45;0.85;;;8.20;59.20;;;;;;7527139;23;20105;-73
2023/11/25 09:09:31;;;;;;;3.08;0.60;;;8.20;59.40;;;;;;7553882;23;20011;-72
2023/11/25 09:12:32;;;;;;;2.20;0.80;;;8.20;59.40;;;;;;7553705;23;20022;-70
2023/11/25 09:15:32;;;;;;;1.33;0.73;;;8.30;59.30;;;;;;7554033;23;20105;-71
2023/11/25 09:18:35;;;;;;;0.77;0.70;;;8.20;59.00;;;;;;7503056;23;20479;-69
2023/11/25 09:21:35;;;;;;;3.38;0.77;;;8.30;58.80;;;;;;7553738;23;20018;-70
2023/11/25 09:24:36;;;;;;;1.20;1.10;;;8.40;58.50;;;;;;7552355;23;20627;-70
2023/11/25 09:27:40;;;;;;;3.63;1.50;;;8.50;58.30;;;;;;7553355;23;20010;-71
2023/11/25 09:30:41;;;;;;;5.18;1.23;;;8.60;58.30;;;;;;7552849;23;20054;-69
2023/11/25 09:33:42;;;;;;;0.63;0.47;;;8.80;57.90;;;;;;7527240;23;20108;-71
2023/11/25 09:36:42;;;;;;;1.85;0.82;;;8.90;57.50;;;;;;7503673;23;20071;-71
2023/11/25 09:39:44;;;;;;;3.80;0.93;;;9.00;57.20;;;;;;7552715;23;20465;-70
2023/11/25 09:42:46;;;;;;;9.27;1.48;;;9.10;57.10;;;;;;7553078;23;20010;-68
2023/11/25 09:45:50;;;;;;;3.47;1.83;;;9.30;56.70;;;;;;7553017;23;20035;-71
2023/11/25 09:48:51;;;;;;;4.38;1.13;;;9.30;56.30;;;;;;7553263;23;20010;-70
2023/11/25 09:51:54;;;;;;;1.90;1.15;;;9.30;56.10;;;;;;7527796;23;20099;-71
2023/11/25 09:54:58;;;;;;;7.50;2.30;;;9.30;56.00;;;;;;7553950;23;20141;-71
2023/11/25 09:58:04;;;;;;;2.60;1.23;;;9.30;56.00;;;;;;7529324;23;20007;-69
2023/11/25 10:01:05;;;;;;;8.40;1.23;;;9.40;55.80;;;;;;7553745;23;20002;-70
2023/11/25 10:04:08;;;;;;;20.52;1.90;;;9.50;55.50;;;;;;7554221;23;20010;-70
2023/11/25 10:07:11;;;;;;;1.20;0.63;;;9.50;55.40;;;;;;7554297;23;20122;-71
2023/11/25 10:10:13;;;;;;;5.40;1.88;;;9.60;55.20;;;;;;7528304;23;20088;-70
2023/11/25 10:13:16;;;;;;;1.83;0.65;;;9.70;54.60;;;;;;7552876;23;20018;-70
2023/11/25 10:16:30;;;;;;;6.78;0.88;;;9.80;54.50;;;;;;7552646;23;20077;-70
2023/11/25 10:19:31;;;;;;;5.45;1.02;;;9.90;54.10;;;;;;7551431;23;20022;-69
2023/11/25 10:22:43;;;;;;;3.00;1.13;;;10.10;54.10;;;;;;7527995;23;20010;-69
2023/11/25 10:25:44;;;;;;;1.27;0.88;;;10.40;53.40;;;;;;7526873;23;20014;-70
2023/11/25 10:28:46;;;;;;;4.05;1.40;;;10.50;52.90;;;;;;7527479;23;20290;-71
2023/11/25 10:31:56;;;;;;;1.90;0.98;;;10.70;52.20;;;;;;7553056;23;20014;-70
2023/11/25 10:34:58;;;;;;;3.28;1.67;;;10.90;51.80;;;;;;7503026;23;20026;-70
2023/11/25 10:37:59;;;;;;;2.63;0.80;;;11.20;51.10;;;;;;7528800;23;20010;-71
2023/11/25 10:41:03;;;;;;;1.48;1.02;;;11.50;49.90;;;;;;7505580;23;20010;-71
2023/11/25 10:44:08;;;;;;;19.50;2.63;;;11.80;49.40;;;;;;7529352;23;20524;-72
2023/11/25 10:47:29;;;;;;;1.27;0.98;;;12.10;48.80;;;;;;7529418;23;20077;-72
2023/11/25 10:50:31;;;;;;;2.15;1.25;;;12.40;48.10;;;;;;7529048;23;20030;-71
2023/11/25 10:53:33;;;;;;;6.35;1.40;;;12.90;47.50;;;;;;7554155;23;20013;-71
2023/11/25 10:56:35;;;;;;;5.93;1.15;;;13.40;46.70;;;;;;7528761;23;20055;-70
2023/11/25 10:59:40;;;;;;;3.03;1.02;;;13.80;44.70;;;;;;7528740;23;20007;-72
2023/11/25 11:02:49;;;;;;;9.93;1.48;;;14.00;43.60;;;;;;7527754;23;20034;-70
2023/11/25 11:05:59;;;;;;;1.98;1.02;;;13.80;43.20;;;;;;7528297;23;20156;-71
2023/11/25 11:09:04;;;;;;;2.08;0.93;;;14.00;43.40;;;;;;7554837;23;20085;-70
2023/11/25 11:12:14;;;;;;;4.25;0.90;;;14.20;42.30;;;;;;7555174;23;20069;-69
2023/11/25 11:15:15;;;;;;;1.98;0.95;;;14.20;41.60;;;;;;7530236;23;20444;-72
2023/11/25 11:18:22;;;;;;;3.25;0.75;;;13.90;42.30;;;;;;7554959;23;20584;-72
2023/11/25 11:21:31;;;;;;;3.60;1.63;;;14.10;41.30;;;;;;7528843;23;20517;-71
2023/11/25 11:24:58;;;;;;;2.17;0.95;;;14.40;40.40;;;;;;7552999;23;20122;-70
2023/11/25 11:28:12;;;;;;;8.90;1.50;;;14.60;40.70;;;;;;7554422;23;20018;-71
2023/11/25 11:31:52;;;;;;;4.60;1.08;;;14.70;40.30;;;;;;7554857;23;20006;-69
2023/11/25 11:34:53;;;;;;;2.33;0.77;;;14.20;40.80;;;;;;7554406;23;20041;-69
2023/11/25 11:37:55;;;;;;;7.93;1.17;;;13.60;41.90;;;;;;7528861;23;20420;-71
2023/11/25 11:40:59;;;;;;;6.20;1.00;;;13.40;42.00;;;;;;7528888;23;20029;-71
2023/11/25 11:44:06;;;;;;;3.88;1.17;;;13.20;42.10;;;;;;7528405;23;20013;-69
2023/11/25 11:47:07;;;;;;;3.42;0.95;;;12.70;43.00;;;;;;7553494;23;20425;-70
2023/11/25 11:50:10;;;;;;;1.20;0.75;;;12.40;43.90;;;;;;7505882;23;20007;-70
2023/11/25 11:53:14;;;;;;;6.43;1.00;;;12.20;44.60;;;;;;7505495;23;20014;-70
2023/11/25 11:56:15;;;;;;;3.15;0.90;;;12.20;44.80;;;;;;7553788;23;20006;-69
2023/11/25 11:59:17;;;;;;;1.83;0.98;;;12.10;45.20;;;;;;7528497;23;20475;-71
2023/11/25 12:02:18;;;;;;;8.18;1.33;;;12.00;45.40;;;;;;7554479;23;20050;-70
2023/11/25 12:05:19;;;;;;;2.50;0.77;;;12.00;45.30;;;;;;7554359;23;20006;-69
2023/11/25 12:08:20;;;;;;;1.45;0.60;;;12.00;45.30;;;;;;7553896;23;20006;-70
2023/11/25 12:11:21;;;;;;;2.15;0.93;;;11.90;45.40;;;;;;7527693;23;20010;-71
2023/11/25 12:14:23;;;;;;;4.70;1.15;;;11.90;45.50;;;;;;7553746;23;20021;-70
2023/11/25 12:17:25;;;;;;;3.40;0.55;;;11.90;45.30;;;;;;7528325;23;20049;-71
2023/11/25 12:20:27;;;;;;;5.13;1.25;;;11.90;44.90;;;;;;7554225;23;20468;-70
2023/11/25 12:23:29;;;;;;;4.68;1.10;;;11.90;44.90;;;;;;7553655;23;20013;-71
2023/11/25 12:26:30;;;;;;;0.73;0.68;;;11.90;44.90;;;;;;7553101;23;20061;-70
2023/11/25 12:29:34;;;;;;;1.63;0.70;;;11.90;45.00;;;;;;7551770;23;20006;-70
2023/11/25 12:32:36;;;;;;;2.55;1.35;;;11.90;45.10;;;;;;7553690;23;20081;-69
2023/11/25 12:35:43;;;;;;;2.72;0.68;;;11.80;44.90;;;;;;7527924;23;20720;-70
2023/11/25 12:38:44;;;;;;;5.65;1.35;;;11.80;44.90;;;;;;7529032;23;20014;-70
2023/11/25 12:41:49;;;;;;;0.70;0.70;;;11.80;45.00;;;;;;7528094;23;20041;-70
2023/11/25 12:44:50;;;;;;;1.27;0.70;;;11.80;44.60;;;;;;7553312;23;20086;-69
2023/11/25 12:47:54;;;;;;;6.55;0.98;;;11.80;44.40;;;;;;7527586;23;20025;-71
2023/11/25 12:51:10;;;;;;;10.02;1.55;;;11.90;44.50;;;;;;7528833;23;20021;-69
2023/11/25 12:54:11;;;;;;;4.82;1.25;;;11.80;44.40;;;;;;7551536;23;20294;-70
2023/11/25 12:57:14;;;;;;;6.13;1.00;;;11.80;44.30;;;;;;7553835;23;20006;-70
2023/11/25 13:00:18;;;;;;;2.80;1.05;;;11.90;44.40;;;;;;7552750;23;20033;-71
2023/11/25 13:03:28;;;;;;;12.98;0.90;;;11.80;44.10;;;;;;7503812;23;20445;-71
2023/11/25 13:06:29;;;;;;;4.60;1.20;;;11.90;43.80;;;;;;7554088;23;20096;-72
2023/11/25 13:09:33;;;;;;;2.63;0.77;;;11.80;43.70;;;;;;7554907;23;20010;-71
2023/11/25 13:12:38;;;;;;;1.70;0.70;;;12.00;43.80;;;;;;7530224;23;20852;-70
2023/11/25 13:15:39;;;;;;;0.47;0.30;;;12.00;43.50;;;;;;7553138;23;20018;-70
2023/11/25 13:18:47;;;;;;;2.42;0.98;;;12.10;43.30;;;;;;7552963;23;20062;-69
2023/11/25 13:21:48;;;;;;;;;;;12.10;43.10;;;;;;7553359;23;20408;-69
2023/11/25 13:24:49;;;;;;;4.93;1.38;;;12.00;43.20;;;;;;7552479;23;19909;-69
2023/11/25 13:27:50;;;;;;;4.63;0.85;;;12.10;43.50;;;;;;7502805;23;20009;-70
2023/11/25 13:30:51;;;;;;;2.08;0.88;;;12.10;43.60;;;;;;7554444;23;20010;-70
2023/11/25 13:33:54;;;;;;;2.10;0.70;;;12.10;43.40;;;;;;7526800;23;20612;-71
2023/11/25 13:36:55;;;;;;;1.05;0.77;;;12.10;43.40;;;;;;7551061;23;20060;-69
2023/11/25 13:39:56;;;;;;;1.48;0.60;;;12.10;43.30;;;;;;7552688;23;20465;-71
2023/11/25 13:42:57;;;;;;;1.23;0.55;;;12.10;43.30;;;;;;7527845;23;20010;-71
2023/11/25 13:45:58;;;;;;;1.75;0.65;;;12.10;43.30;;;;;;7552747;23;20077;-71
2023/11/25 13:48:58;;;;;;;6.50;0.82;;;12.10;43.40;;;;;;7526760;23;20158;-70
2023/11/25 13:52:00;;;;;;;6.97;0.90;;;12.10;43.20;;;;;;7552718;23;20070;-71
2023/11/25 13:55:01;;;;;;;0.70;0.68;;;12.10;43.40;;;;;;7527042;23;20212;-70
2023/11/25 13:58:04;;;;;;;3.63;0.93;;;12.00;43.40;;;;;;7502833;23;20014;-71
2023/11/25 14:04:43;;;;;;;4.32;1.50;;;12.00;43.10;;;;;;7553732;23;20007;-71
2023/11/25 14:07:47;;;;;;;0.77;0.47;;;11.90;42.90;;;;;;7551499;23;20074;-71
2023/11/25 14:10:48;;;;;;;3.25;0.50;;;11.90;42.90;;;;;;7527402;23;20472;-70
2023/11/25 14:13:51;;;;;;;1.23;0.45;;;11.90;42.50;;;;;;7555027;23;20021;-70
2023/11/25 14:16:52;;;;;;;1.95;0.60;;;11.90;42.20;;;;;;7555396;23;20046;-70
2023/11/25 14:19:54;;;;;;;6.03;1.20;;;11.90;42.20;;;;;;7528753;23;20073;-71
2023/11/25 14:22:56;;;;;;;1.75;0.85;;;11.90;42.30;;;;;;7555225;23;20549;-70
2023/11/25 14:25:57;;;;;;;5.60;0.73;;;12.00;42.30;;;;;;7527687;23;20014;-71
2023/11/25 14:28:57;;;;;;;3.67;0.63;;;12.00;42.20;;;;;;7505120;23;20353;-70
2023/11/25 14:31:58;;;;;;;1.55;0.95;;;12.00;42.50;;;;;;7529218;23;20015;-69
2023/11/25 14:34:59;;;;;;;1.70;0.77;;;11.90;43.00;;;;;;7554912;23;20014;-71
2023/11/25 14:38:03;;;;;;;0.98;0.77;;;11.90;43.60;;;;;;7505425;23;20026;-70
2023/11/25 14:41:04;;;;;;;2.30;0.90;;;11.80;43.80;;;;;;7528373;23;20010;-70
2023/11/25 14:44:05;;;;;;;3.25;0.93;;;11.70;43.90;;;;;;7554124;23;20081;-69
2023/11/25 14:47:07;;;;;;;3.22;0.88;;;11.60;44.20;;;;;;7528452;23;20211;-70
2023/11/25 14:50:10;;;;;;;1.55;1.23;;;11.60;44.20;;;;;;7552555;23;20074;-70
2023/11/25 14:53:13;;;;;;;5.60;1.20;;;11.60;44.10;;;;;;7554492;23;20017;-69
2023/11/25 14:56:14;;;;;;;0.65;0.57;;;11.50;44.10;;;;;;7528416;23;20102;-70
2023/11/25 14:59:15;;;;;;;3.78;1.13;;;11.50;44.20;;;;;;7554192;23;20108;-69
2023/11/25 15:02:16;;;;;;;8.63;1.67;;;11.40;44.30;;;;;;7527829;23;20003;-71
2023/11/25 15:05:17;;;;;;;3.58;0.52;;;11.40;44.20;;;;;;7527986;23;20017;-70
2023/11/25 15:08:18;;;;;;;2.90;1.05;;;11.30;44.30;;;;;;7553917;23;20014;-69
2023/11/25 15:11:19;;;;;;;2.03;0.65;;;11.10;44.60;;;;;;7527650;23;20025;-69
2023/11/25 15:14:20;;;;;;;4.03;0.70;;;11.00;44.80;;;;;;7554264;23;20109;-70
2023/11/25 15:17:22;;;;;;;4.30;0.98;;;10.80;44.80;;;;;;7528353;23;20002;-70
2023/11/25 15:20:23;;;;;;;2.70;0.90;;;10.70;45.00;;;;;;7552278;23;20016;-70
2023/11/25 15:23:24;;;;;;;4.20;0.65;;;10.60;45.50;;;;;;7553944;23;20034;-70
2023/11/25 15:26:26;;;;;;;5.53;0.32;;;10.50;45.60;;;;;;7527472;23;20026;-71
2023/11/25 15:29:27;;;;;;;1.70;0.88;;;10.50;45.70;;;;;;7553696;23;20017;-69
2023/11/25 15:32:28;;;;;;;4.53;0.90;;;10.50;45.80;;;;;;7527366;23;20055;-70
2023/11/25 15:35:28;;;;;;;5.47;0.75;;;10.40;46.00;;;;;;7527994;23;20086;-69
2023/11/25 15:38:30;;;;;;;3.45;1.05;;;10.30;46.10;;;;;;7555234;23;20016;-72
2023/11/25 15:41:32;;;;;;;2.72;0.47;;;10.30;46.20;;;;;;7527554;23;20033;-71
2023/11/25 15:44:33;;;;;;;6.00;1.20;;;10.30;46.30;;;;;;7555008;23;20097;-71
2023/11/25 15:47:35;;;;;;;7.88;1.20;;;10.30;46.40;;;;;;7554653;23;20418;-71
2023/11/25 15:50:35;;;;;;;2.90;0.77;;;10.20;46.40;;;;;;7553342;23;20056;-69
2023/11/25 15:53:36;;;;;;;11.98;0.95;;;10.20;46.50;;;;;;7553404;23;20522;-69
2023/11/25 15:56:37;;;;;;;2.22;0.85;;;10.20;46.40;;;;;;7552519;23;20046;-70
2023/11/25 15:59:42;;;;;;;3.80;1.25;;;10.20;46.20;;;;;;7554723;23;20046;-69